createdAt,value
2023-06-05T00:04:38.022Z,99148.81
2023-06-05T00:14:44.585Z,99145.69
2023-06-05T00:24:50.046Z,99144.90
2023-06-05T00:34:56.522Z,99149.39
2023-06-05T00:45:00.640Z,99152.63
2023-06-05T00:55:05.607Z,99155.02
2023-06-05T01:05:11.706Z,99146.23
2023-06-05T01:15:19.653Z,99145.52
2023-06-05T01:25:26.398Z,99150.67
2023-06-05T01:35:34.325Z,99147.19
2023-06-05T01:45:41.784Z,99145.25
2023-06-05T01:55:47.933Z,99146.42
2023-06-05T02:05:52.589Z,99135.64
2023-06-05T02:15:58.610Z,99132.66
2023-06-05T02:26:04.266Z,99126.91
2023-06-05T02:36:10.018Z,99132.53
2023-06-05T02:46:15.862Z,99129.09
2023-06-05T02:56:23.164Z,99128.66
2023-06-05T03:06:29.376Z,99130.81
2023-06-05T03:16:43.178Z,99133.77
2023-06-05T03:26:49.311Z,99132.45
2023-06-05T03:36:55.149Z,99132.20
2023-06-05T03:47:00.602Z,99126.58
2023-06-05T03:57:10.559Z,99129.60
2023-06-05T04:07:16.129Z,99120.03
2023-06-05T04:17:21.604Z,99122.83
2023-06-05T04:27:29.910Z,99124.70
2023-06-05T04:37:36.626Z,99125.23
2023-06-05T04:47:42.208Z,99119.52
2023-06-05T04:57:46.920Z,99116.73
2023-06-05T05:17:57.386Z,99119.78
2023-06-05T05:28:02.994Z,99123.31
2023-06-05T05:38:08.040Z,99127.32
2023-06-05T05:48:13.645Z,99128.14
2023-06-05T05:58:19.707Z,99128.08
2023-06-05T06:08:26.326Z,99128.80
2023-06-05T06:18:32.073Z,99130.50
2023-06-05T06:28:37.751Z,99131.32
2023-06-05T06:38:43.247Z,99133.12
2023-06-05T06:48:48.904Z,99135.75
2023-06-05T06:58:56.097Z,99138.39
2023-06-05T07:09:00.643Z,99136.75
2023-06-05T07:19:06.510Z,99140.85
2023-06-05T07:29:11.937Z,99141.33
2023-06-05T07:39:18.681Z,99147.45
2023-06-05T07:49:24.540Z,99146.35
2023-06-05T07:59:30.709Z,99142.41
2023-06-05T08:09:39.680Z,99142.88
2023-06-05T08:19:46.904Z,99136.11
2023-06-05T08:29:52.459Z,99135.17
2023-06-05T08:39:58.009Z,99138.14
2023-06-05T08:50:02.996Z,99141.08
2023-06-05T09:00:11.828Z,99136.34
2023-06-05T09:10:31.445Z,99127.07
2023-06-05T09:20:38.957Z,99129.00
2023-06-05T09:30:55.414Z,99125.67
2023-06-05T09:41:06.177Z,99115.86
2023-06-05T09:51:11.109Z,99114.73
2023-06-05T10:01:16.526Z,99108.34
2023-06-05T10:11:21.937Z,99089.38
2023-06-05T10:21:29.285Z,99090.46
2023-06-05T10:31:35.736Z,99073.14
2023-06-05T10:41:41.687Z,99066.76
2023-06-05T10:51:48.219Z,99065.13
2023-06-05T11:02:12.882Z,99065.88
2023-06-05T11:12:19.078Z,99062.54
2023-06-05T11:22:25.089Z,99046.48
2023-06-05T11:32:31.478Z,99049.63
2023-06-05T11:42:37.372Z,99042.44
2023-06-05T11:52:42.538Z,99037.42
2023-06-05T12:02:48.402Z,99034.62
2023-06-05T12:12:55.240Z,99024.65
2023-06-05T12:23:01.087Z,99013.69
2023-06-05T12:33:06.008Z,99012.98
2023-06-05T12:43:18.287Z,99008.38
2023-06-05T12:53:23.779Z,98995.00
2023-06-05T13:03:29.831Z,98990.58
2023-06-05T13:13:35.546Z,98977.69
2023-06-05T13:23:41.350Z,98968.74
2023-06-05T13:33:47.250Z,98963.63
2023-06-05T13:43:52.870Z,98951.20
2023-06-05T13:53:57.773Z,98944.89
2023-06-05T14:04:03.947Z,98941.11
2023-06-05T14:14:10.021Z,98927.81
2023-06-05T14:24:16.335Z,98919.58
2023-06-05T14:34:21.228Z,98913.00
2023-06-05T15:28:46.767Z,98894.86
2023-06-05T15:38:53.420Z,98890.63
2023-06-05T15:49:01.081Z,98884.32
2023-06-05T15:59:08.415Z,98881.34
2023-06-05T16:09:15.627Z,98875.59
2023-06-05T16:19:24.193Z,98872.15
2023-06-05T16:29:32.681Z,98869.95
2023-06-05T16:39:41.191Z,98872.57
2023-06-05T16:49:48.817Z,98873.33
2023-06-05T16:59:56.048Z,98872.89
2023-06-05T17:10:03.444Z,98874.10
2023-06-05T17:20:11.495Z,98872.65
2023-06-05T17:30:16.594Z,98866.60
2023-06-05T17:40:25.649Z,98864.52
2023-06-05T17:50:33.692Z,98864.56
2023-06-05T18:00:41.888Z,98864.78
2023-06-05T18:10:47.153Z,98866.23
2023-06-05T18:20:54.650Z,98869.64
2023-06-05T18:31:01.968Z,98877.11
2023-06-05T18:41:09.385Z,98878.68
2023-06-05T18:51:15.561Z,98877.72
2023-06-05T19:01:23.138Z,98888.40
2023-06-05T19:11:30.876Z,98895.92
2023-06-05T19:21:38.298Z,98903.19
2023-06-05T19:31:46.629Z,98908.38
2023-06-05T19:41:53.510Z,98910.92
2023-06-05T19:52:02.474Z,98905.84
2023-06-05T20:02:07.641Z,98906.44
2023-06-05T20:12:15.674Z,98912.89
2023-06-05T20:22:23.978Z,98908.45
2023-06-05T20:32:31.394Z,98915.02
2023-06-05T20:42:39.002Z,98918.13
2023-06-05T20:52:46.414Z,98914.10
2023-06-05T21:02:53.877Z,98916.39
2023-06-05T21:13:01.747Z,98918.42
2023-06-05T21:23:08.099Z,98919.14
2023-06-05T21:33:15.416Z,98927.86
2023-06-05T21:43:21.795Z,98928.61
2023-06-05T21:53:29.417Z,98926.95
2023-06-05T22:03:37.162Z,98925.66
2023-06-05T22:13:45.834Z,98930.14
2023-06-05T22:23:53.388Z,98929.21
2023-06-05T22:44:07.883Z,98924.92
2023-06-05T22:54:15.040Z,98915.52
2023-06-05T23:04:22.361Z,98911.71
2023-06-05T23:14:30.495Z,98908.95
2023-06-05T23:24:37.663Z,98906.38
2023-06-05T23:34:44.940Z,98908.96
2023-06-05T23:44:50.893Z,98903.63
2023-06-05T23:54:57.969Z,98894.33
